createdAt,value
2022-08-05T00:00:43.758Z,72.74
2022-08-05T00:05:51.669Z,72.92
2022-08-05T00:10:58.851Z,73.66001
2022-08-05T00:16:07.201Z,73.93
2022-08-05T00:21:13.840Z,74.13
2022-08-05T00:26:21.030Z,74.31
2022-08-05T00:31:28.861Z,73.93
2022-08-05T00:36:37.005Z,74.4
2022-08-05T00:41:43.261Z,74.6
2022-08-05T00:46:51.101Z,74.87
2022-08-05T00:51:58.939Z,75.0
2022-08-05T00:57:06.646Z,74.9
2022-08-05T01:02:14.636Z,75.23
2022-08-05T01:07:22.412Z,75.66
2022-08-05T01:12:29.305Z,76.02
2022-08-05T01:17:37.575Z,76.16001
2022-08-05T01:22:44.648Z,76.35
2022-08-05T01:27:52.092Z,76.59
2022-08-05T01:33:00.152Z,76.43
2022-08-05T01:38:08.830Z,76.74
2022-08-05T01:43:16.058Z,76.73
2022-08-05T01:48:22.614Z,76.98
2022-08-05T01:53:30.876Z,76.95
2022-08-05T01:58:37.676Z,77.21
2022-08-05T02:03:44.860Z,77.15
2022-08-05T02:08:52.027Z,77.33
2022-08-05T02:13:58.616Z,78.15
2022-08-05T02:19:06.041Z,78.08
2022-08-05T02:24:17.952Z,78.13
2022-08-05T02:29:26.486Z,78.22
2022-08-05T02:34:34.397Z,78.29
2022-08-05T02:39:43.289Z,78.81
2022-08-05T02:44:50.773Z,78.79
2022-08-05T02:49:58.677Z,78.81
2022-08-05T02:55:06.708Z,79.25
2022-08-05T03:00:15.067Z,79.02
2022-08-05T03:05:22.805Z,79.46
2022-08-05T03:10:29.978Z,79.86
2022-08-05T03:15:37.886Z,80.09
2022-08-05T03:20:45.530Z,80.41
2022-08-05T03:25:54.009Z,80.51001
2022-08-05T03:31:02.438Z,80.67
2022-08-05T03:36:10.397Z,80.7
2022-08-05T03:41:19.131Z,80.57
2022-08-05T03:46:26.207Z,80.80001
2022-08-05T03:51:34.022Z,80.46
2022-08-05T03:56:41.831Z,80.59
2022-08-05T04:01:48.994Z,80.78
2022-08-05T04:06:57.497Z,81.35
2022-08-05T04:12:06.338Z,77.74
2022-08-05T04:17:14.804Z,73.39
2022-08-05T04:22:21.749Z,69.43
2022-08-05T04:27:29.936Z,64.07
2022-08-05T04:32:37.660Z,58.94
2022-08-05T04:37:45.818Z,55.56
2022-08-05T04:42:53.815Z,52.86
2022-08-05T04:48:00.850Z,50.68
2022-08-05T04:53:09.854Z,49.29
2022-08-05T04:58:17.440Z,49.82
2022-08-05T05:03:25.413Z,48.13
2022-08-05T05:08:33.768Z,45.56
2022-08-05T05:13:40.700Z,43.94
2022-08-05T05:18:48.472Z,45.04
2022-08-05T05:23:55.734Z,44.36
2022-08-05T05:29:04.732Z,43.04
2022-08-05T05:34:12.264Z,43.2
2022-08-05T05:39:19.392Z,42.72
2022-08-05T05:44:27.294Z,41.58
2022-08-05T05:49:34.969Z,41.54
2022-08-05T05:54:43.288Z,41.28
2022-08-05T05:59:50.619Z,41.66
2022-08-05T06:04:57.818Z,39.59
2022-08-05T06:10:08.093Z,41.01
2022-08-05T06:15:15.446Z,42.02
2022-08-05T06:20:23.764Z,42.26
2022-08-05T06:25:31.122Z,42.66
2022-08-05T06:30:39.911Z,41.44
2022-08-05T06:35:47.418Z,42.02
2022-08-05T06:40:53.978Z,42.42
2022-08-05T06:46:01.793Z,43.44
2022-08-05T06:51:10.803Z,44.15
2022-08-05T06:56:18.893Z,44.64
2022-08-05T07:01:26.651Z,45.08
2022-08-05T07:06:34.569Z,47.12
2022-08-05T07:11:42.801Z,47.88
2022-08-05T07:16:50.527Z,46.69
2022-08-05T07:21:57.975Z,48.03
2022-08-05T07:27:07.336Z,47.43
2022-08-05T07:32:15.752Z,47.83
2022-08-05T07:37:23.350Z,47.59
2022-08-05T07:42:31.127Z,47.67
2022-08-05T07:47:39.618Z,47.04
2022-08-05T07:52:47.220Z,47.32
2022-08-05T07:58:00.369Z,46.3
2022-08-05T08:03:08.313Z,46.12
2022-08-05T08:08:16.536Z,46.02
2022-08-05T08:13:25.275Z,45.95
2022-08-05T08:18:31.942Z,45.57
2022-08-05T08:23:39.743Z,45.54
2022-08-05T08:28:47.914Z,45.78
2022-08-05T08:33:55.442Z,43.94
2022-08-05T08:39:03.899Z,44.37
2022-08-05T08:44:11.710Z,43.83
2022-08-05T08:49:20.423Z,43.93
2022-08-05T08:54:28.162Z,44.22
2022-08-05T08:59:35.895Z,43.37
2022-08-05T09:04:43.617Z,42.76
2022-08-05T09:09:50.311Z,44.32
2022-08-05T09:14:59.292Z,41.87
2022-08-05T09:20:07.389Z,43.97
2022-08-05T09:21:38.573Z,42.73
2022-08-05T09:26:44.960Z,42.86
2022-08-05T09:31:53.116Z,43.18
2022-08-05T09:37:01.216Z,41.4
2022-08-05T09:42:09.087Z,42.87
2022-08-05T09:47:16.058Z,41.73
2022-08-05T09:52:23.928Z,42.81
2022-08-05T09:57:30.625Z,40.35
2022-08-05T10:02:38.307Z,41.14
2022-08-05T10:07:45.716Z,40.0
2022-08-05T10:12:53.842Z,40.8
2022-08-05T10:18:02.336Z,39.53
2022-08-05T10:23:10.168Z,40.12
2022-08-05T10:28:17.944Z,39.71
2022-08-05T10:33:26.223Z,40.57
2022-08-05T10:38:33.176Z,38.94
2022-08-05T10:43:41.159Z,40.56
2022-08-05T10:48:49.432Z,38.83
2022-08-05T10:53:56.041Z,37.93
2022-08-05T10:59:04.410Z,38.44
2022-08-05T11:04:12.328Z,36.64
2022-08-05T11:09:18.804Z,36.78
2022-08-05T11:14:25.499Z,37.7
2022-08-05T11:19:33.503Z,36.34
2022-08-05T11:24:41.049Z,37.34
2022-08-05T11:29:50.327Z,37.14
2022-08-05T11:34:59.173Z,37.3
2022-08-05T11:40:06.084Z,36.61
2022-08-05T11:45:14.028Z,37.24
2022-08-05T11:50:22.629Z,37.17
2022-08-05T11:55:30.717Z,36.63
2022-08-05T12:00:39.221Z,37.1
2022-08-05T12:05:46.204Z,37.58
2022-08-05T12:10:54.173Z,37.72
2022-08-05T12:16:02.310Z,38.47
2022-08-05T12:21:10.929Z,38.36
2022-08-05T12:26:17.920Z,37.76
2022-08-05T12:31:26.025Z,38.3
2022-08-05T12:36:33.432Z,37.51
2022-08-05T12:41:40.700Z,36.69
2022-08-05T12:46:48.085Z,37.07
2022-08-05T12:51:55.358Z,36.1
2022-08-05T12:57:02.936Z,35.82
2022-08-05T13:02:10.644Z,36.49
2022-08-05T13:07:17.971Z,35.94
2022-08-05T13:12:25.034Z,36.13
2022-08-05T13:17:31.734Z,34.42
2022-08-05T13:22:39.965Z,35.23
2022-08-05T13:27:46.135Z,34.96
2022-08-05T13:32:53.972Z,34.6
2022-08-05T13:38:02.064Z,34.36
2022-08-05T13:43:09.012Z,33.11
2022-08-05T13:48:17.200Z,32.45
2022-08-05T13:53:25.205Z,32.12
2022-08-05T13:58:31.920Z,32.4
2022-08-05T14:03:40.144Z,32.09
2022-08-05T14:08:49.493Z,32.47
2022-08-05T14:13:57.746Z,31.23
2022-08-05T14:19:06.730Z,31.78
2022-08-05T14:24:13.726Z,32.42
2022-08-05T14:29:21.335Z,32.25
2022-08-05T14:34:28.690Z,31.02
2022-08-05T14:39:36.801Z,32.54
2022-08-05T14:44:43.728Z,31.66
2022-08-05T14:49:51.064Z,29.94
2022-08-05T14:54:58.905Z,28.95
2022-08-05T15:00:06.683Z,28.24
2022-08-05T15:05:13.224Z,27.76
2022-08-05T15:10:21.020Z,27.73
2022-08-05T15:15:28.273Z,29.94
2022-08-05T15:20:36.125Z,30.09
2022-08-05T15:25:43.899Z,27.73
2022-08-05T15:30:50.457Z,30.23
2022-08-05T15:35:57.186Z,32.82
2022-08-05T15:41:04.843Z,30.08
2022-08-05T15:46:12.689Z,30.1
2022-08-05T15:51:18.594Z,31.13
2022-08-05T15:56:24.542Z,32.42
2022-08-05T16:01:32.086Z,32.6
2022-08-05T16:06:39.102Z,33.78
2022-08-05T16:11:46.777Z,37.24
2022-08-05T16:16:54.430Z,40.06
2022-08-05T16:22:02.720Z,39.34
2022-08-05T16:27:11.340Z,40.74
2022-08-05T16:32:18.092Z,42.32
2022-08-05T16:37:25.528Z,40.86
2022-08-05T16:42:33.444Z,40.9
2022-08-05T16:47:41.120Z,40.58
2022-08-05T16:52:47.838Z,40.84
2022-08-05T16:57:55.287Z,42.74
2022-08-05T17:03:02.789Z,44.59
2022-08-05T17:08:09.932Z,44.72
2022-08-05T17:13:17.028Z,45.46
2022-08-05T17:18:23.988Z,46.45
2022-08-05T17:23:31.645Z,47.25
2022-08-05T17:28:38.632Z,48.01
2022-08-05T17:33:46.395Z,48.8
2022-08-05T17:38:53.602Z,49.64
2022-08-05T17:44:00.856Z,50.16
2022-08-05T17:49:08.057Z,51.19
2022-08-05T17:54:15.892Z,51.6
2022-08-05T17:59:23.738Z,51.08
2022-08-05T18:04:30.938Z,51.59
2022-08-05T18:09:38.188Z,51.71
2022-08-05T18:15:23.801Z,51.22
2022-08-05T18:20:32.193Z,51.34
2022-08-05T18:25:40.568Z,51.28
2022-08-05T18:30:49.034Z,51.64
2022-08-05T18:35:56.599Z,51.57
2022-08-05T18:41:04.878Z,50.54
2022-08-05T18:46:19.091Z,51.28
2022-08-05T18:51:27.101Z,52.62
2022-08-05T18:56:35.350Z,53.13
2022-08-05T19:01:43.280Z,53.93
2022-08-05T19:06:51.498Z,53.43
2022-08-05T19:11:58.937Z,52.69
2022-08-05T19:17:06.753Z,53.87
2022-08-05T19:22:15.073Z,54.64
2022-08-05T19:27:22.506Z,53.82
2022-08-05T19:32:30.323Z,52.31
2022-08-05T19:37:38.328Z,51.49
2022-08-05T19:42:46.648Z,49.34
2022-08-05T19:56:24.696Z,49.45
2022-08-05T20:01:32.807Z,49.5
2022-08-05T20:06:39.624Z,50.02
2022-08-05T20:11:47.284Z,50.6
2022-08-05T20:16:54.646Z,50.92
2022-08-05T20:22:01.985Z,51.45
2022-08-05T20:27:09.635Z,52.32
2022-08-05T20:32:17.498Z,52.77
2022-08-05T20:37:25.538Z,52.4
2022-08-05T20:42:33.752Z,52.16
2022-08-05T20:47:42.731Z,51.86
2022-08-05T20:52:56.500Z,52.7
2022-08-05T20:58:04.429Z,52.97
2022-08-05T21:03:12.224Z,53.45
2022-08-05T21:08:19.423Z,53.94
2022-08-05T21:13:26.661Z,53.92
2022-08-05T21:18:35.602Z,53.4
2022-08-05T21:23:44.089Z,52.74
2022-08-05T21:28:51.416Z,53.22
2022-08-05T21:33:58.620Z,53.32
2022-08-05T21:39:08.063Z,53.88
2022-08-05T21:44:16.558Z,53.82
2022-08-05T21:49:24.091Z,53.66
2022-08-05T21:54:31.477Z,54.14
2022-08-05T21:59:38.216Z,54.37
2022-08-05T22:04:45.126Z,55.07
2022-08-05T22:09:51.833Z,55.46
2022-08-05T22:14:59.922Z,55.42
2022-08-05T22:20:07.291Z,56.33
2022-08-05T22:25:15.610Z,56.18
2022-08-05T22:30:21.694Z,56.42
2022-08-05T22:35:29.528Z,56.01
2022-08-05T22:40:37.270Z,55.36
2022-08-05T22:45:45.888Z,55.46
2022-08-05T22:50:54.868Z,55.62
2022-08-05T22:56:01.746Z,55.93
2022-08-05T23:01:08.721Z,56.25
2022-08-05T23:06:16.538Z,56.74
2022-08-05T23:11:24.564Z,57.57
2022-08-05T23:16:32.240Z,57.99
2022-08-05T23:21:39.002Z,58.54
2022-08-05T23:26:46.902Z,58.99
2022-08-05T23:31:53.233Z,57.98
2022-08-05T23:37:01.139Z,57.43
2022-08-05T23:42:09.358Z,58.04
2022-08-05T23:47:16.425Z,58.41
2022-08-05T23:52:22.952Z,59.62
2022-08-05T23:57:31.398Z,60.02
